Orange, New Jersey
Current Conditions -  °F | °C
As of 3:51 AM on Friday 28 Nov 2014 (Local Time) from KEWR Reporting Station
Scattered Clouds Scattered Clouds  
Wind Chill: 21°   Ceiling: Unl
Heat Index: 29°   Visibility: 10mi
Dew Point: 22°   Wind: 8mph
Humidity: 75%   Direction: 280°W
Pressure: 30.1"   Gusts: NA
Location:  40.77°N, 74.23°W
Report Text: KEWR 280851Z 28007KT 10SM FEW050 SCT150 M02/M06 A3010 RMK AO2 SLP192 T10171056 51008 $
Loading
Personal Weather Stations






























Interactive Weather Map New forecast layout! Learn more

10-Day Weather Forecast

Advertisements
Track Severe Weather on mobile